Acadie — FV7722 — position and weather

sailwx.info

Track history (hours):
 
Tides and Currents Weather Stations Pressure Air Temp Water Temp Dewpoint Dewpoint Depression Visibility Wind Speed Wind Dir Waves Ship Positions

Acadie

Last reported at 2017-Jun-22 15:06 UTC. Time now 2017-Aug-23 15:36 UTC.
Position N 47°44' W 003°22'.
Warning: this ship's position is months out of date.

Length 45 m.

Type: Passenger vessel. MMSI: 227002780.

Date/timePositionNaut miles runAvg speedWind from/ knotsBaromVisibWave heightAir tempDewpointWater temp
2017-Jun-22 15:06N 47°44' W 003°22'0 0.1
2017-Jun-22 15:00N 47°44' W 003°22'4 7.1
2017-Jun-22 14:31N 47°41' W 003°25'3 3.1
2017-Jun-22 13:30N 47°43' W 003°22'1 2.8
2017-Jun-22 13:00N 47°44' W 003°21'1 2.1
2017-Jun-22 12:30N 47°44' W 003°22'611.8
2017-Jun-22 12:01N 47°39' W 003°27'0 0.1
2017-Jun-22 11:30N 47°39' W 003°27'2 5.0
2017-Jun-22 11:00N 47°41' W 003°25'4 9.0
2017-Jun-22 10:30N 47°44' W 003°21'0 0.0
2017-Jun-22 10:00N 47°44' W 003°21'0 0.0
2017-Jun-22 09:30N 47°44' W 003°21'0 0.0
2017-Jun-22 09:00N 47°44' W 003°21'2 4.9
2017-Jun-22 08:30N 47°42' W 003°22'5 9.3
2017-Jun-22 08:00N 47°39' W 003°27'1 1.4
2017-Jun-22 07:30N 47°39' W 003°27'510.5
2017-Jun-22 07:00N 47°43' W 003°22'1 1.0
2017-Jun-22 06:30N 47°44' W 003°22'  
Track history (hours):
 
Tides and Currents Weather Stations Pressure Air Temp Water Temp Dewpoint Dewpoint Depression Visibility Wind Speed Wind Dir Waves Ship Positions

Acadie

Last reported at 2017-Jun-22 15:06 UTC. Time now 2017-Aug-23 15:36 UTC.
Position N 47°44' W 003°22'.
Warning: this ship's position is months out of date.

Length 45 m.

Type: Passenger vessel. MMSI: 227002780.

Date/timePositionNaut miles runAvg speedWind from/ knotsBaromVisibWave heightAir tempDewpointWater temp
2017-Jun-22 15:06N 47°44' W 003°22'0 0.1
2017-Jun-22 15:00N 47°44' W 003°22'4 7.1
2017-Jun-22 14:31N 47°41' W 003°25'3 3.1
2017-Jun-22 13:30N 47°43' W 003°22'1 2.8
2017-Jun-22 13:00N 47°44' W 003°21'1 2.1
2017-Jun-22 12:30N 47°44' W 003°22'611.8
2017-Jun-22 12:01N 47°39' W 003°27'0 0.1
2017-Jun-22 11:30N 47°39' W 003°27'2 5.0
2017-Jun-22 11:00N 47°41' W 003°25'4 9.0
2017-Jun-22 10:30N 47°44' W 003°21'0 0.0
2017-Jun-22 10:00N 47°44' W 003°21'0 0.0
2017-Jun-22 09:30N 47°44' W 003°21'0 0.0
2017-Jun-22 09:00N 47°44' W 003°21'2 4.9
2017-Jun-22 08:30N 47°42' W 003°22'5 9.3
2017-Jun-22 08:00N 47°39' W 003°27'1 1.4
2017-Jun-22 07:30N 47°39' W 003°27'510.5
2017-Jun-22 07:00N 47°43' W 003°22'1 1.0
2017-Jun-22 06:30N 47°44' W 003°22'  

Dump ship's entire track history